createdAt,value
2018-12-15T00:00:20.073Z,1019.57
2018-12-15T00:00:46.174Z,1019.6
2018-12-15T00:01:12.290Z,1019.61
2018-12-15T00:01:38.389Z,1019.65
2018-12-15T00:02:04.514Z,1019.58
2018-12-15T00:02:30.625Z,1019.63
2018-12-15T00:02:56.730Z,1019.65
2018-12-15T00:03:22.861Z,1019.64
2018-12-15T00:03:48.994Z,1019.61
2018-12-15T00:04:15.102Z,1019.61
2018-12-15T00:04:41.201Z,1019.64
2018-12-15T00:05:07.304Z,1019.66
2018-12-15T00:05:33.411Z,1019.62
2018-12-15T00:05:59.542Z,1019.68
2018-12-15T00:06:25.669Z,1019.64
2018-12-15T00:06:51.778Z,1019.66
2018-12-15T00:07:17.877Z,1019.67
2018-12-15T00:07:43.986Z,1019.71
2018-12-15T00:08:10.088Z,1019.68
2018-12-15T00:08:36.199Z,1019.66
2018-12-15T00:09:02.312Z,1019.68
2018-12-15T00:09:28.437Z,1019.69
2018-12-15T00:09:54.538Z,1019.72
2018-12-15T00:10:20.649Z,1019.71
2018-12-15T00:10:46.754Z,1019.71
2018-12-15T00:11:12.859Z,1019.71
2018-12-15T00:11:38.960Z,1019.69
2018-12-15T00:12:05.069Z,1019.7
2018-12-15T00:12:31.177Z,1019.71
2018-12-15T00:12:57.285Z,1019.68
2018-12-15T00:13:23.386Z,1019.71
2018-12-15T00:13:49.495Z,1019.71
2018-12-15T00:14:15.598Z,1019.71
2018-12-15T00:14:41.700Z,1019.71
2018-12-15T00:15:07.809Z,1019.69
2018-12-15T00:15:33.940Z,1019.71
2018-12-15T00:16:00.037Z,1019.69
2018-12-15T00:16:26.152Z,1019.72
2018-12-15T00:16:52.258Z,1019.68
2018-12-15T00:17:19.349Z,1019.66
2018-12-15T00:17:45.460Z,1019.7
2018-12-15T00:18:11.591Z,1019.71
2018-12-15T00:18:37.687Z,1019.69
2018-12-15T00:19:03.796Z,1019.72
2018-12-15T00:19:29.904Z,1019.74
2018-12-15T00:19:56.036Z,1019.73
2018-12-15T00:20:22.176Z,1019.73
2018-12-15T00:20:48.276Z,1019.7
2018-12-15T00:21:14.388Z,1019.72
2018-12-15T00:21:40.489Z,1019.7
2018-12-15T00:22:06.606Z,1019.73
2018-12-15T00:22:32.710Z,1019.72
2018-12-15T00:22:58.814Z,1019.71
2018-12-15T00:23:24.916Z,1019.7
2018-12-15T00:23:51.022Z,1019.7
2018-12-15T00:24:17.123Z,1019.72
2018-12-15T00:24:43.224Z,1019.73
2018-12-15T00:25:09.331Z,1019.74
2018-12-15T00:25:35.461Z,1019.71
2018-12-15T00:26:01.568Z,1019.72
2018-12-15T00:26:27.673Z,1019.73
2018-12-15T00:26:53.776Z,1019.75
2018-12-15T00:27:19.871Z,1019.73
2018-12-15T00:27:45.977Z,1019.75
2018-12-15T00:28:12.085Z,1019.75
2018-12-15T00:28:38.219Z,1019.74
2018-12-15T00:29:04.327Z,1019.75
2018-12-15T00:29:30.428Z,1019.77
2018-12-15T00:29:56.538Z,1019.75
2018-12-15T00:30:22.666Z,1019.77
2018-12-15T00:30:48.790Z,1019.77
2018-12-15T00:31:14.878Z,1019.77
2018-12-15T00:31:40.988Z,1019.76
2018-12-15T00:32:07.087Z,1019.77
2018-12-15T00:32:33.187Z,1019.77
2018-12-15T00:32:59.321Z,1019.76
2018-12-15T00:33:25.425Z,1019.78
2018-12-15T00:33:51.534Z,1019.79
2018-12-15T00:34:17.636Z,1019.77
2018-12-15T00:34:43.741Z,1019.76
2018-12-15T00:35:09.847Z,1019.75
2018-12-15T00:35:35.945Z,1019.77
2018-12-15T00:36:02.057Z,1019.81
2018-12-15T00:36:28.193Z,1019.79
2018-12-15T00:36:54.302Z,1019.81
2018-12-15T00:37:20.409Z,1019.83
2018-12-15T00:37:46.514Z,1019.85
2018-12-15T00:38:12.626Z,1019.77
2018-12-15T00:38:38.735Z,1019.81
2018-12-15T00:39:04.863Z,1019.84
2018-12-15T00:39:30.967Z,1019.84
2018-12-15T00:39:57.105Z,1019.85
2018-12-15T00:40:23.212Z,1019.84
2018-12-15T00:40:49.328Z,1019.85
2018-12-15T00:41:15.432Z,1019.87
2018-12-15T00:41:41.573Z,1019.85
2018-12-15T00:42:07.675Z,1019.87
2018-12-15T00:42:33.785Z,1019.88
2018-12-15T00:42:59.886Z,1019.9
2018-12-15T00:43:25.999Z,1019.91
2018-12-15T00:43:52.106Z,1019.85
2018-12-15T00:44:18.228Z,1019.89
2018-12-15T00:44:44.374Z,1019.88
2018-12-15T00:45:10.466Z,1019.89
2018-12-15T00:45:36.621Z,1019.91
2018-12-15T00:46:02.702Z,1019.93
2018-12-15T00:46:28.852Z,1019.93
2018-12-15T00:46:54.914Z,1019.94
2018-12-15T00:47:22.027Z,1019.94
2018-12-15T00:47:48.136Z,1019.94
2018-12-15T00:48:14.242Z,1019.92
2018-12-15T00:48:40.346Z,1019.93
2018-12-15T00:49:06.450Z,1019.89
2018-12-15T00:49:32.556Z,1019.93
2018-12-15T00:49:58.658Z,1019.9
2018-12-15T00:50:24.771Z,1019.96
2018-12-15T00:50:50.904Z,1019.89
2018-12-15T00:51:17.006Z,1019.92
2018-12-15T00:51:43.104Z,1019.93
2018-12-15T00:52:09.212Z,1019.92
2018-12-15T00:52:35.343Z,1019.94
2018-12-15T00:53:01.449Z,1019.93
2018-12-15T00:53:27.583Z,1019.97
2018-12-15T00:53:53.686Z,1019.98
2018-12-15T00:54:19.790Z,1019.95
2018-12-15T00:54:45.890Z,1019.91
2018-12-15T00:55:12.001Z,1019.97
2018-12-15T00:55:38.125Z,1020
2018-12-15T00:56:04.223Z,1020.02
2018-12-15T00:56:30.339Z,1020.01
2018-12-15T00:56:56.440Z,1020.02
2018-12-15T00:57:22.547Z,1020.01
2018-12-15T00:57:48.653Z,1020.03
2018-12-15T00:58:14.759Z,1020.02
2018-12-15T00:58:40.863Z,1020.03
2018-12-15T00:59:06.969Z,1020.05
2018-12-15T00:59:33.080Z,1020.06
2018-12-15T00:59:59.181Z,1020.03
2018-12-15T01:00:25.283Z,1020.1
2018-12-15T01:00:51.386Z,1020.05
2018-12-15T01:01:17.495Z,1020.09
2018-12-15T01:01:43.595Z,1020.07
2018-12-15T01:02:09.695Z,1020.14
2018-12-15T01:02:35.799Z,1020.07
2018-12-15T01:03:01.938Z,1020.09
2018-12-15T01:03:28.046Z,1020.12
2018-12-15T01:03:54.149Z,1020.13
2018-12-15T01:04:20.296Z,1020.1
2018-12-15T01:04:46.486Z,1020.13
2018-12-15T01:05:12.593Z,1020.11
2018-12-15T01:05:38.694Z,1020.12
2018-12-15T01:06:04.800Z,1020.17
2018-12-15T01:06:30.900Z,1020.16
2018-12-15T01:06:57.009Z,1020.15
2018-12-15T01:07:23.111Z,1020.17
2018-12-15T01:07:49.223Z,1020.16
2018-12-15T01:08:15.323Z,1020.18
2018-12-15T01:08:41.436Z,1020.19
2018-12-15T01:09:07.538Z,1020.18
2018-12-15T01:09:33.647Z,1020.21
2018-12-15T01:09:59.746Z,1020.2
2018-12-15T01:10:25.852Z,1020.21
2018-12-15T01:10:51.952Z,1020.24
2018-12-15T01:11:18.065Z,1020.24
2018-12-15T01:11:44.165Z,1020.21
2018-12-15T01:12:10.280Z,1020.19
2018-12-15T01:12:36.374Z,1020.24
2018-12-15T01:13:02.512Z,1020.23
2018-12-15T01:13:28.607Z,1020.2
2018-12-15T01:13:54.712Z,1020.22
2018-12-15T01:14:20.826Z,1020.2
2018-12-15T01:14:46.928Z,1020.23
2018-12-15T01:15:13.029Z,1020.24
2018-12-15T01:15:39.142Z,1020.26
2018-12-15T01:16:05.242Z,1020.23
2018-12-15T01:16:31.347Z,1020.21
2018-12-15T01:16:57.453Z,1020.24
2018-12-15T01:17:24.546Z,1020.23
2018-12-15T01:17:50.655Z,1020.25
2018-12-15T01:18:16.767Z,1020.23
2018-12-15T01:18:42.892Z,1020.21
2018-12-15T01:19:09.003Z,1020.22
2018-12-15T01:19:35.134Z,1020.19
2018-12-15T01:20:01.270Z,1020.24
2018-12-15T01:20:27.366Z,1020.23
2018-12-15T01:20:53.475Z,1020.22
2018-12-15T01:21:19.577Z,1020.23
2018-12-15T01:21:45.688Z,1020.22
2018-12-15T01:22:11.816Z,1020.24
2018-12-15T01:22:37.925Z,1020.2
2018-12-15T01:23:04.032Z,1020.23
2018-12-15T01:23:30.162Z,1020.21
2018-12-15T01:23:56.271Z,1020.18
2018-12-15T01:24:22.373Z,1020.19
2018-12-15T01:24:48.475Z,1020.16
2018-12-15T01:25:14.585Z,1020.21
2018-12-15T01:25:40.687Z,1020.2
2018-12-15T01:26:06.789Z,1020.2
2018-12-15T01:26:32.895Z,1020.19
2018-12-15T01:27:00.407Z,1020.24
2018-12-15T01:27:27.086Z,1020.23
2018-12-15T01:27:53.195Z,1020.25
2018-12-15T01:28:19.296Z,1020.24
2018-12-15T01:28:45.400Z,1020.25
2018-12-15T01:29:11.511Z,1020.25
2018-12-15T01:29:37.618Z,1020.27
2018-12-15T01:30:03.713Z,1020.32
2018-12-15T01:30:29.817Z,1020.28
2018-12-15T01:30:55.922Z,1020.29
2018-12-15T01:31:22.027Z,1020.27
2018-12-15T01:31:48.134Z,1020.34
2018-12-15T01:32:14.233Z,1020.32
2018-12-15T01:32:40.336Z,1020.31
2018-12-15T01:33:06.468Z,1020.31
2018-12-15T01:33:32.571Z,1020.33
2018-12-15T01:33:58.676Z,1020.32
2018-12-15T01:34:24.784Z,1020.33
2018-12-15T01:34:50.906Z,1020.31
2018-12-15T01:35:17.016Z,1020.3
2018-12-15T01:35:43.117Z,1020.35
2018-12-15T01:36:09.224Z,1020.3
2018-12-15T01:36:35.332Z,1020.29
2018-12-15T01:37:01.440Z,1020.29
2018-12-15T01:37:27.543Z,1020.33
2018-12-15T01:37:53.644Z,1020.34
2018-12-15T01:38:19.748Z,1020.34
2018-12-15T01:38:45.856Z,1020.32
2018-12-15T01:39:11.963Z,1020.32
2018-12-15T01:39:38.090Z,1020.32
2018-12-15T01:40:04.191Z,1020.3
2018-12-15T01:40:30.299Z,1020.34
2018-12-15T01:40:56.406Z,1020.32
2018-12-15T01:41:22.507Z,1020.33
2018-12-15T01:41:48.612Z,1020.3
2018-12-15T01:42:14.738Z,1020.31
2018-12-15T01:42:40.849Z,1020.32
2018-12-15T01:43:06.986Z,1020.34
2018-12-15T01:43:33.086Z,1020.3
2018-12-15T01:43:59.197Z,1020.3
2018-12-15T01:44:25.328Z,1020.32
2018-12-15T01:44:51.456Z,1020.34
2018-12-15T01:45:17.590Z,1020.3
2018-12-15T01:45:43.853Z,1020.29
2018-12-15T01:46:10.328Z,1020.32
2018-12-15T01:46:36.531Z,1020.32
2018-12-15T01:47:02.709Z,1020.3
2018-12-15T01:47:29.808Z,1020.33
2018-12-15T01:47:55.920Z,1020.31
2018-12-15T01:48:22.041Z,1020.32
2018-12-15T01:48:48.149Z,1020.33
2018-12-15T01:49:14.260Z,1020.3
2018-12-15T01:49:40.394Z,1020.32
2018-12-15T01:50:06.525Z,1020.3
2018-12-15T01:50:32.637Z,1020.32
2018-12-15T01:50:58.765Z,1020.32
2018-12-15T01:51:24.875Z,1020.34
2018-12-15T01:51:51.142Z,1020.34
2018-12-15T01:52:17.366Z,1020.4
2018-12-15T01:52:43.524Z,1020.34
2018-12-15T01:53:09.620Z,1020.37
2018-12-15T01:53:35.773Z,1020.31
2018-12-15T01:54:02.026Z,1020.36
2018-12-15T01:54:28.155Z,1020.34
2018-12-15T01:54:54.267Z,1020.32
2018-12-15T01:55:20.444Z,1020.32
2018-12-15T01:55:46.557Z,1020.34
2018-12-15T01:56:12.658Z,1020.35
2018-12-15T01:56:38.820Z,1020.32
2018-12-15T01:57:04.921Z,1020.32
2018-12-15T01:57:31.023Z,1020.33
2018-12-15T01:57:57.126Z,1020.33
2018-12-15T01:58:23.289Z,1020.32
2018-12-15T01:58:49.396Z,1020.31
2018-12-15T01:59:15.583Z,1020.29
2018-12-15T01:59:41.887Z,1020.3
2018-12-15T02:00:07.992Z,1020.28
2018-12-15T02:00:34.207Z,1020.27
2018-12-15T02:01:00.306Z,1020.25
2018-12-15T02:01:26.412Z,1020.24
2018-12-15T02:01:52.538Z,1020.32
2018-12-15T02:02:18.639Z,1020.29
2018-12-15T02:02:44.740Z,1020.33
2018-12-15T02:03:10.888Z,1020.32
2018-12-15T02:03:36.985Z,1020.29
2018-12-15T02:04:03.116Z,1020.32
2018-12-15T02:04:29.268Z,1020.29
2018-12-15T02:04:55.402Z,1020.26
2018-12-15T02:05:21.508Z,1020.3
2018-12-15T02:05:47.619Z,1020.32
2018-12-15T02:06:13.720Z,1020.26
2018-12-15T02:06:39.819Z,1020.32
2018-12-15T02:07:05.967Z,1020.28
2018-12-15T02:07:32.087Z,1020.3
2018-12-15T02:07:58.179Z,1020.32
2018-12-15T02:08:24.285Z,1020.31
2018-12-15T02:08:50.450Z,1020.31
2018-12-15T02:09:16.499Z,1020.34
2018-12-15T02:09:42.624Z,1020.34
2018-12-15T02:10:08.724Z,1020.34
2018-12-15T02:10:34.883Z,1020.38
2018-12-15T02:11:00.982Z,1020.36
2018-12-15T02:11:27.119Z,1020.37
2018-12-15T02:11:53.224Z,1020.34
2018-12-15T02:12:19.331Z,1020.38
2018-12-15T02:12:45.429Z,1020.37
2018-12-15T02:13:11.535Z,1020.42
2018-12-15T02:13:37.671Z,1020.41
2018-12-15T02:14:03.844Z,1020.43
2018-12-15T02:14:29.949Z,1020.41
2018-12-15T02:14:56.084Z,1020.43
2018-12-15T02:15:22.186Z,1020.4
2018-12-15T02:15:48.305Z,1020.46
2018-12-15T02:16:14.407Z,1020.45
2018-12-15T02:16:40.538Z,1020.45
2018-12-15T02:17:06.635Z,1020.45
2018-12-15T02:17:33.911Z,1020.44
2018-12-15T02:17:59.970Z,1020.48
2018-12-15T02:18:26.072Z,1020.49
2018-12-15T02:18:52.184Z,1020.42
2018-12-15T02:19:18.279Z,1020.46
2018-12-15T02:19:44.394Z,1020.47
2018-12-15T02:20:10.498Z,1020.47
2018-12-15T02:20:36.603Z,1020.47
2018-12-15T02:21:02.704Z,1020.44
2018-12-15T02:21:28.810Z,1020.45
2018-12-15T02:21:54.920Z,1020.46
2018-12-15T02:22:21.019Z,1020.49
2018-12-15T02:22:47.126Z,1020.44
2018-12-15T02:23:13.229Z,1020.45
2018-12-15T02:23:39.334Z,1020.45
2018-12-15T02:24:05.441Z,1020.45
2018-12-15T02:24:31.647Z,1020.41
2018-12-15T02:24:57.753Z,1020.44
2018-12-15T02:25:23.888Z,1020.45
2018-12-15T02:25:49.987Z,1020.45
2018-12-15T02:26:16.093Z,1020.43
2018-12-15T02:26:42.262Z,1020.43
2018-12-15T02:27:08.365Z,1020.43
2018-12-15T02:27:34.474Z,1020.44
2018-12-15T02:28:00.578Z,1020.46
2018-12-15T02:28:26.684Z,1020.42
2018-12-15T02:28:52.782Z,1020.38
2018-12-15T02:29:18.923Z,1020.41
2018-12-15T02:29:45.021Z,1020.42
2018-12-15T02:30:11.124Z,1020.44
2018-12-15T02:30:37.257Z,1020.41
2018-12-15T02:31:03.463Z,1020.4
2018-12-15T02:31:29.566Z,1020.41
2018-12-15T02:31:55.696Z,1020.39
2018-12-15T02:32:21.825Z,1020.46
2018-12-15T02:32:47.931Z,1020.39
2018-12-15T02:33:14.033Z,1020.4
2018-12-15T02:33:40.135Z,1020.37
2018-12-15T02:34:06.269Z,1020.39
2018-12-15T02:34:32.371Z,1020.38
2018-12-15T02:34:58.472Z,1020.38
2018-12-15T02:35:24.580Z,1020.4
2018-12-15T02:35:50.739Z,1020.39
2018-12-15T02:36:16.843Z,1020.41
2018-12-15T02:36:42.973Z,1020.38
2018-12-15T02:37:09.077Z,1020.38
2018-12-15T02:37:35.180Z,1020.38
2018-12-15T02:38:01.287Z,1020.39
2018-12-15T02:38:27.448Z,1020.36
2018-12-15T02:38:53.550Z,1020.37
2018-12-15T02:39:19.680Z,1020.34
2018-12-15T02:39:45.781Z,1020.39
2018-12-15T02:40:11.930Z,1020.34
2018-12-15T02:40:38.037Z,1020.35
2018-12-15T02:41:04.224Z,1020.37
2018-12-15T02:41:30.351Z,1020.37
2018-12-15T02:41:57.465Z,1020.37
2018-12-15T02:42:23.571Z,1020.36
2018-12-15T02:42:49.671Z,1020.35
2018-12-15T02:43:15.773Z,1020.36
2018-12-15T02:43:41.875Z,1020.39
2018-12-15T02:44:08.012Z,1020.38
2018-12-15T02:44:34.126Z,1020.39
2018-12-15T02:45:00.231Z,1020.4
2018-12-15T02:45:26.329Z,1020.38
2018-12-15T02:45:52.435Z,1020.39
2018-12-15T02:46:18.568Z,1020.39
2018-12-15T02:46:44.674Z,1020.39
2018-12-15T02:47:10.806Z,1020.39
2018-12-15T02:47:41.361Z,1020.37
2018-12-15T02:48:04.023Z,1020.38
2018-12-15T02:48:30.162Z,1020.37
2018-12-15T02:48:56.291Z,1020.4
2018-12-15T02:49:22.428Z,1020.37
2018-12-15T02:49:48.535Z,1020.37
2018-12-15T02:50:14.661Z,1020.37
2018-12-15T02:50:40.769Z,1020.38
2018-12-15T02:51:06.896Z,1020.39
2018-12-15T02:51:33.001Z,1020.39
2018-12-15T02:51:59.138Z,1020.38
2018-12-15T02:52:25.292Z,1020.35
2018-12-15T02:52:51.399Z,1020.37
2018-12-15T02:53:17.529Z,1020.38
2018-12-15T02:53:43.662Z,1020.41
2018-12-15T02:54:09.784Z,1020.37
2018-12-15T02:54:35.923Z,1020.38
2018-12-15T02:55:02.024Z,1020.43
2018-12-15T02:55:28.154Z,1020.41
2018-12-15T02:55:54.261Z,1020.43
2018-12-15T02:56:20.363Z,1020.42
2018-12-15T02:56:46.472Z,1020.42
2018-12-15T02:57:12.605Z,1020.46
2018-12-15T02:57:38.740Z,1020.4
2018-12-15T02:58:04.854Z,1020.43
2018-12-15T02:58:30.989Z,1020.44
2018-12-15T02:58:57.115Z,1020.41
2018-12-15T02:59:23.228Z,1020.41
2018-12-15T02:59:49.367Z,1020.4
2018-12-15T03:00:15.487Z,1020.41
2018-12-15T03:00:41.567Z,1020.4
2018-12-15T03:01:07.678Z,1020.43
2018-12-15T03:01:33.786Z,1020.42
2018-12-15T03:01:59.885Z,1020.41
2018-12-15T03:02:26.023Z,1020.45
2018-12-15T03:02:52.146Z,1020.38
2018-12-15T03:03:18.246Z,1020.37
2018-12-15T03:03:44.356Z,1020.4
2018-12-15T03:04:10.461Z,1020.42
2018-12-15T03:04:36.563Z,1020.35
2018-12-15T03:05:02.699Z,1020.36
2018-12-15T03:05:28.808Z,1020.37
2018-12-15T03:05:54.915Z,1020.36
2018-12-15T03:06:21.012Z,1020.35
2018-12-15T03:06:47.141Z,1020.35
2018-12-15T03:07:13.298Z,1020.35
2018-12-15T03:07:39.429Z,1020.35
2018-12-15T03:08:05.602Z,1020.34
2018-12-15T03:08:31.709Z,1020.36
2018-12-15T03:08:57.813Z,1020.37
2018-12-15T03:09:23.910Z,1020.34
2018-12-15T03:09:50.049Z,1020.3
2018-12-15T03:10:16.186Z,1020.35
2018-12-15T03:10:42.286Z,1020.36
2018-12-15T03:11:08.416Z,1020.35
2018-12-15T03:11:34.520Z,1020.36
2018-12-15T03:12:00.627Z,1020.35
2018-12-15T03:12:26.731Z,1020.32
2018-12-15T03:12:52.837Z,1020.33
2018-12-15T03:13:19.007Z,1020.35
2018-12-15T03:13:45.110Z,1020.36
2018-12-15T03:14:11.208Z,1020.34
2018-12-15T03:14:37.347Z,1020.33
2018-12-15T03:15:03.447Z,1020.33
2018-12-15T03:15:29.557Z,1020.33
2018-12-15T03:15:55.752Z,1020.38
2018-12-15T03:16:21.790Z,1020.31
2018-12-15T03:16:47.889Z,1020.34
2018-12-15T03:17:14.000Z,1020.32
2018-12-15T03:17:40.136Z,1020.34
2018-12-15T03:18:07.227Z,1020.35
2018-12-15T03:18:33.362Z,1020.33
2018-12-15T03:18:59.525Z,1020.32
2018-12-15T03:19:25.625Z,1020.32
2018-12-15T03:19:51.729Z,1020.29
2018-12-15T03:20:17.836Z,1020.29
2018-12-15T03:20:43.968Z,1020.33
2018-12-15T03:21:10.069Z,1020.26
2018-12-15T03:21:36.179Z,1020.29
2018-12-15T03:22:02.332Z,1020.29
2018-12-15T03:22:28.429Z,1020.32
2018-12-15T03:22:54.558Z,1020.29
2018-12-15T03:23:20.696Z,1020.29
2018-12-15T03:23:46.819Z,1020.3
2018-12-15T03:24:12.929Z,1020.28
2018-12-15T03:24:39.034Z,1020.27
2018-12-15T03:25:05.136Z,1020.28
2018-12-15T03:25:31.258Z,1020.25
2018-12-15T03:25:57.367Z,1020.23
2018-12-15T03:26:23.471Z,1020.26
2018-12-15T03:26:49.578Z,1020.23
2018-12-15T03:27:15.705Z,1020.25
2018-12-15T03:27:41.802Z,1020.27
2018-12-15T03:28:07.912Z,1020.24
2018-12-15T03:28:34.010Z,1020.22
2018-12-15T03:29:00.149Z,1020.27
2018-12-15T03:29:26.280Z,1020.24
2018-12-15T03:29:52.404Z,1020.25
2018-12-15T03:30:18.503Z,1020.22
2018-12-15T03:30:44.696Z,1020.24
2018-12-15T03:31:10.860Z,1020.24
2018-12-15T03:31:37.986Z,1020.24
2018-12-15T03:32:04.126Z,1020.24
2018-12-15T03:32:30.271Z,1020.28
2018-12-15T03:32:56.440Z,1020.29
2018-12-15T03:33:22.538Z,1020.29
2018-12-15T03:33:48.674Z,1020.29
2018-12-15T03:34:14.776Z,1020.28
2018-12-15T03:34:40.882Z,1020.31
2018-12-15T03:35:07.014Z,1020.29
2018-12-15T03:35:33.116Z,1020.29
2018-12-15T03:35:59.253Z,1020.31
2018-12-15T03:36:25.354Z,1020.3
2018-12-15T03:36:51.459Z,1020.3
2018-12-15T03:37:17.570Z,1020.25
2018-12-15T03:37:43.734Z,1020.29
2018-12-15T03:38:09.889Z,1020.25
2018-12-15T03:38:36.020Z,1020.25
2018-12-15T03:39:02.146Z,1020.28
2018-12-15T03:39:28.250Z,1020.21
2018-12-15T03:39:54.405Z,1020.28
2018-12-15T03:40:20.520Z,1020.23
2018-12-15T03:40:46.628Z,1020.19
2018-12-15T03:41:12.757Z,1020.21
2018-12-15T03:41:38.864Z,1020.2
2018-12-15T03:42:04.964Z,1020.21
2018-12-15T03:42:31.067Z,1020.18
2018-12-15T03:42:57.174Z,1020.21
2018-12-15T03:43:23.303Z,1020.21
2018-12-15T03:43:49.436Z,1020.19
2018-12-15T03:44:15.536Z,1020.18
2018-12-15T03:44:41.664Z,1020.18
2018-12-15T03:45:07.774Z,1020.17
2018-12-15T03:45:33.877Z,1020.22
2018-12-15T03:46:00.017Z,1020.21
2018-12-15T03:46:26.148Z,1020.19
2018-12-15T03:46:52.254Z,1020.17
2018-12-15T03:47:18.356Z,1020.17
2018-12-15T03:47:44.490Z,1020.2
2018-12-15T03:48:12.103Z,1020.17
2018-12-15T03:48:38.261Z,1020.21
2018-12-15T03:49:04.401Z,1020.17
2018-12-15T03:49:30.506Z,1020.22
2018-12-15T03:49:56.610Z,1020.19
2018-12-15T03:50:22.738Z,1020.19
2018-12-15T03:50:48.845Z,1020.23
2018-12-15T03:51:14.948Z,1020.25
2018-12-15T03:51:41.046Z,1020.23
2018-12-15T03:52:07.194Z,1020.22
2018-12-15T03:52:33.298Z,1020.27
2018-12-15T03:52:59.431Z,1020.23
2018-12-15T03:53:25.566Z,1020.27
2018-12-15T03:53:51.678Z,1020.28
2018-12-15T03:54:17.783Z,1020.24
2018-12-15T03:54:43.919Z,1020.27
2018-12-15T03:55:10.044Z,1020.28
2018-12-15T03:55:36.154Z,1020.26
2018-12-15T03:56:02.258Z,1020.29
2018-12-15T03:56:28.416Z,1020.27
2018-12-15T03:56:54.577Z,1020.25
2018-12-15T03:57:20.705Z,1020.23
2018-12-15T03:57:46.807Z,1020.23
2018-12-15T03:58:12.915Z,1020.21
2018-12-15T03:58:39.044Z,1020.2
2018-12-15T03:59:05.149Z,1020.23
2018-12-15T03:59:31.250Z,1020.22
2018-12-15T03:59:57.353Z,1020.25
2018-12-15T04:00:23.486Z,1020.22
2018-12-15T04:00:49.675Z,1020.21
2018-12-15T04:01:15.780Z,1020.19
2018-12-15T04:01:41.885Z,1020.19
2018-12-15T04:02:08.018Z,1020.21
2018-12-15T04:02:34.117Z,1020.19
2018-12-15T04:03:00.255Z,1020.23
2018-12-15T04:03:26.366Z,1020.18
2018-12-15T04:03:52.494Z,1020.22
2018-12-15T04:04:18.597Z,1020.19
2018-12-15T04:04:44.727Z,1020.2
2018-12-15T04:05:10.857Z,1020.2
2018-12-15T04:05:36.995Z,1020.18
2018-12-15T04:06:03.127Z,1020.22
2018-12-15T04:06:29.231Z,1020.23
2018-12-15T04:06:55.346Z,1020.21
2018-12-15T04:07:21.453Z,1020.19
2018-12-15T04:07:47.550Z,1020.22
2018-12-15T04:08:13.658Z,1020.2
2018-12-15T04:08:39.764Z,1020.18
2018-12-15T04:09:05.868Z,1020.2
2018-12-15T04:09:32.001Z,1020.2
2018-12-15T04:09:58.104Z,1020.19
2018-12-15T04:10:24.264Z,1020.18
2018-12-15T04:10:50.410Z,1020.19
2018-12-15T04:11:16.534Z,1020.13
2018-12-15T04:11:42.640Z,1020.17
2018-12-15T04:12:08.749Z,1020.18
2018-12-15T04:12:34.847Z,1020.14
2018-12-15T04:13:00.953Z,1020.16
2018-12-15T04:13:27.056Z,1020.15
2018-12-15T04:13:53.193Z,1020.13
2018-12-15T04:14:19.295Z,1020.12
2018-12-15T04:14:45.427Z,1020.12
2018-12-15T04:15:11.559Z,1020.14
2018-12-15T04:15:37.659Z,1020.11
2018-12-15T04:16:03.763Z,1020.1
2018-12-15T04:16:29.865Z,1020.11
2018-12-15T04:16:55.992Z,1020.09
2018-12-15T04:17:22.105Z,1020.13
2018-12-15T04:17:48.219Z,1020.09
2018-12-15T04:18:15.319Z,1020.13
2018-12-15T04:18:41.419Z,1020.12
2018-12-15T04:19:07.521Z,1020.12
2018-12-15T04:19:33.629Z,1020.13
2018-12-15T04:19:59.765Z,1020.14
2018-12-15T04:20:25.860Z,1020.14
2018-12-15T04:20:52.006Z,1020.13
2018-12-15T04:21:18.136Z,1020.15
2018-12-15T04:21:44.240Z,1020.13
2018-12-15T04:22:10.342Z,1020.14
2018-12-15T04:22:36.450Z,1020.12
2018-12-15T04:23:02.549Z,1020.09
2018-12-15T04:23:28.646Z,1020.09
2018-12-15T04:23:54.753Z,1020.11
2018-12-15T04:24:20.885Z,1020.09
2018-12-15T04:24:46.993Z,1020.09
2018-12-15T04:25:13.105Z,1020.09
2018-12-15T04:25:39.213Z,1020.07
2018-12-15T04:26:05.344Z,1020.07
2018-12-15T04:26:31.449Z,1020.05
2018-12-15T04:26:57.558Z,1020.01
2018-12-15T04:27:23.661Z,1020.04
2018-12-15T04:27:49.764Z,1020.06
2018-12-15T04:28:15.870Z,1020.06
2018-12-15T04:28:41.981Z,1020.05
2018-12-15T04:29:08.080Z,1020.05
2018-12-15T04:29:34.187Z,1020.02
2018-12-15T04:30:00.296Z,1020.05
2018-12-15T04:30:26.402Z,1020.09
2018-12-15T04:30:52.585Z,1020.06
2018-12-15T04:31:18.687Z,1020.07
2018-12-15T04:31:44.793Z,1020.02
2018-12-15T04:32:10.900Z,1020.06
2018-12-15T04:32:37.001Z,1020.07
2018-12-15T04:33:04.095Z,1020.05
2018-12-15T04:33:30.195Z,1020.09
2018-12-15T04:33:56.302Z,1020.06
2018-12-15T04:34:22.437Z,1020.08
2018-12-15T04:34:48.555Z,1020.07
2018-12-15T04:35:14.715Z,1020.05
2018-12-15T04:35:40.813Z,1020.07
2018-12-15T04:36:06.919Z,1020.11
2018-12-15T04:36:33.055Z,1020.09
2018-12-15T04:36:59.153Z,1020.09
2018-12-15T04:37:25.260Z,1020.08
2018-12-15T04:37:51.393Z,1020.05
2018-12-15T04:38:17.492Z,1020.08
2018-12-15T04:38:43.600Z,1020.07
2018-12-15T04:39:09.730Z,1020.09
2018-12-15T04:39:35.833Z,1020.09
2018-12-15T04:40:01.951Z,1020.07
2018-12-15T04:40:28.079Z,1020.06
2018-12-15T04:40:54.214Z,1020.08
2018-12-15T04:41:20.310Z,1020.07
2018-12-15T04:41:46.411Z,1020.04
2018-12-15T04:42:12.522Z,1020.03
2018-12-15T04:42:38.651Z,1020.09
2018-12-15T04:43:04.758Z,1020.04
2018-12-15T04:43:30.869Z,1020.05
2018-12-15T04:43:56.967Z,1020.05
2018-12-15T04:44:23.069Z,1020.03
2018-12-15T04:44:49.173Z,1020.04
2018-12-15T04:45:15.306Z,1020.09
2018-12-15T04:45:41.428Z,1020.03
2018-12-15T04:46:07.555Z,1020
2018-12-15T04:46:33.659Z,1020.04
2018-12-15T04:46:59.760Z,1020
2018-12-15T04:47:25.860Z,1020.02
2018-12-15T04:47:51.963Z,1020
2018-12-15T04:48:19.082Z,1020.06
2018-12-15T04:48:45.217Z,1020.02
2018-12-15T04:49:11.353Z,1020.02
2018-12-15T04:49:37.456Z,1020.05
2018-12-15T04:50:03.554Z,1020.01
2018-12-15T04:50:29.654Z,1020.03
2018-12-15T04:50:55.818Z,1019.99
2018-12-15T04:51:21.981Z,1020.03
2018-12-15T04:51:48.084Z,1020.04
2018-12-15T04:52:14.228Z,1020.04
2018-12-15T04:52:40.353Z,1020.05
2018-12-15T04:53:06.453Z,1020.02
2018-12-15T04:53:32.588Z,1020.01
2018-12-15T04:53:58.693Z,1019.97
2018-12-15T04:54:24.824Z,1020.01
2018-12-15T04:54:50.930Z,1019.97
2018-12-15T04:55:17.030Z,1019.97
2018-12-15T04:55:43.160Z,1019.98
2018-12-15T04:56:09.265Z,1020.02
2018-12-15T04:56:35.367Z,1019.98
2018-12-15T04:57:01.477Z,1019.98
2018-12-15T04:57:27.590Z,1019.98
2018-12-15T04:57:53.712Z,1019.95
2018-12-15T04:58:19.813Z,1019.93
2018-12-15T04:58:45.947Z,1019.96
2018-12-15T04:59:12.085Z,1019.95
2018-12-15T04:59:38.188Z,1019.95
2018-12-15T05:00:04.325Z,1019.96
2018-12-15T05:00:30.485Z,1019.95
2018-12-15T05:00:56.587Z,1020
2018-12-15T05:01:22.694Z,1020
2018-12-15T05:01:48.800Z,1019.99
2018-12-15T05:02:14.910Z,1020
2018-12-15T05:02:43.898Z,1019.97
2018-12-15T05:03:08.132Z,1020
2018-12-15T05:03:34.230Z,1019.96
2018-12-15T05:04:00.333Z,1019.98
2018-12-15T05:04:26.454Z,1019.96
2018-12-15T05:04:52.561Z,1019.98
2018-12-15T05:05:18.698Z,1019.98
2018-12-15T05:05:44.796Z,1019.95
2018-12-15T05:06:10.927Z,1019.95
2018-12-15T05:06:37.033Z,1019.94
2018-12-15T05:07:03.190Z,1019.96
2018-12-15T05:07:29.300Z,1019.96
2018-12-15T05:07:55.405Z,1019.9
2018-12-15T05:08:21.509Z,1019.9
2018-12-15T05:08:47.641Z,1019.91
2018-12-15T05:09:13.769Z,1019.93
2018-12-15T05:09:39.869Z,1019.94
2018-12-15T05:10:05.974Z,1019.93
2018-12-15T05:10:32.109Z,1019.93
2018-12-15T05:10:58.260Z,1019.89
2018-12-15T05:11:24.361Z,1019.95
2018-12-15T05:11:50.467Z,1019.93
2018-12-15T05:12:16.571Z,1019.93
2018-12-15T05:12:42.702Z,1019.91
2018-12-15T05:13:08.807Z,1019.94
2018-12-15T05:13:34.934Z,1019.91
2018-12-15T05:14:01.042Z,1019.94
2018-12-15T05:14:27.148Z,1019.92
2018-12-15T05:14:53.248Z,1019.9
2018-12-15T05:15:19.356Z,1019.93
2018-12-15T05:15:45.487Z,1019.88
2018-12-15T05:16:11.641Z,1019.86
2018-12-15T05:16:37.751Z,1019.93
2018-12-15T05:17:03.879Z,1019.91
2018-12-15T05:17:29.983Z,1019.9